Morden, United Kingdom
Current Conditions -  °F | °C
As of 9:50 AM on Monday 22 Dec 2014 (Local Time) from EGKB Reporting Station
Broken Clouds Broken Clouds  
Wind Chill: 54°   Ceiling: 1700
Heat Index: 54°   Visibility: 6mi
Dew Point: 46°   Wind: 20mph
Humidity: 77%   Direction: 250°WSW
Pressure: 30.09"   Gusts: 31mph
Location:  51.4°N, 0.2°W
Report Text: EGKB 220950Z 25017G27KT 220V280 9999 BKN017 12/08 Q1019
Loading
Personal Weather Stations






























Interactive Weather Map New forecast layout! Learn more

10-Day Weather Forecast

Advertisements
Track Severe Weather on mobile